sensor_id;sensor_type;location;lat;lon;timestamp;temperature;humidity
23591;DHT22;11973;52.098;7.582;2023-02-15T04:47:41;-0.60;99.90
23591;DHT22;11973;52.098;7.582;2023-02-15T04:50:07;-0.60;99.90
23591;DHT22;11973;52.098;7.582;2023-02-15T04:52:33;-0.60;99.90
23591;DHT22;11973;52.098;7.582;2023-02-15T04:54:58;-0.60;99.90
23591;DHT22;11973;52.098;7.582;2023-02-15T04:57:25;-0.60;99.90
23591;DHT22;11973;52.098;7.582;2023-02-15T04:59:51;-0.60;99.90
23591;DHT22;11973;52.098;7.582;2023-02-15T05:02:16;-0.60;99.90
23591;DHT22;11973;52.098;7.582;2023-02-15T05:04:42;-0.60;99.90
23591;DHT22;11973;52.098;7.582;2023-02-15T05:07:08;-0.60;99.90
23591;DHT22;11973;52.098;7.582;2023-02-15T05:09:33;-0.70;99.90
23591;DHT22;11973;52.098;7.582;2023-02-15T05:11:59;-0.70;99.90
23591;DHT22;11973;52.098;7.582;2023-02-15T05:14:25;-0.70;99.90
23591;DHT22;11973;52.098;7.582;2023-02-15T05:16:50;-0.70;99.90
23591;DHT22;11973;52.098;7.582;2023-02-15T05:19:16;-0.70;99.90
23591;DHT22;11973;52.098;7.582;2023-02-15T05:21:42;-0.70;99.90
23591;DHT22;11973;52.098;7.582;2023-02-15T05:24:08;-0.70;99.90
23591;DHT22;11973;52.098;7.582;2023-02-15T05:26:52;-0.70;99.90
23591;DHT22;11973;52.098;7.582;2023-02-15T05:29:36;-0.80;99.90
23591;DHT22;11973;52.098;7.582;2023-02-15T05:32:02;-0.80;99.90
23591;DHT22;11973;52.098;7.582;2023-02-15T05:34:29;-0.80;99.90
23591;DHT22;11973;52.098;7.582;2023-02-15T05:36:55;-0.80;99.90
23591;DHT22;11973;52.098;7.582;2023-02-15T05:39:21;-0.80;99.90
23591;DHT22;11973;52.098;7.582;2023-02-15T05:41:46;-0.80;99.90
23591;DHT22;11973;52.098;7.582;2023-02-15T05:44:12;-0.80;99.90
23591;DHT22;11973;52.098;7.582;2023-02-15T05:46:37;-0.80;99.90
23591;DHT22;11973;52.098;7.582;2023-02-15T05:49:03;-0.80;99.90
23591;DHT22;11973;52.098;7.582;2023-02-15T05:51:29;-0.90;99.90
23591;DHT22;11973;52.098;7.582;2023-02-15T05:53:54;-0.80;99.90
23591;DHT22;11973;52.098;7.582;2023-02-15T05:56:20;-0.90;99.90
23591;DHT22;11973;52.098;7.582;2023-02-15T05:58:46;-0.90;99.90
23591;DHT22;11973;52.098;7.582;2023-02-15T06:01:14;-0.90;99.90
23591;DHT22;11973;52.098;7.582;2023-02-15T06:03:40;-0.90;99.90
23591;DHT22;11973;52.098;7.582;2023-02-15T06:06:07;-0.90;99.90
23591;DHT22;11973;52.098;7.582;2023-02-15T06:08:35;-1.00;99.90
23591;DHT22;11973;52.098;7.582;2023-02-15T06:11:01;-1.00;99.90
23591;DHT22;11973;52.098;7.582;2023-02-15T06:13:27;-1.00;99.90
23591;DHT22;11973;52.098;7.582;2023-02-15T06:15:53;-1.00;99.90
23591;DHT22;11973;52.098;7.582;2023-02-15T06:18:19;-1.00;99.90
23591;DHT22;11973;52.098;7.582;2023-02-15T06:20:47;-1.00;99.90
23591;DHT22;11973;52.098;7.582;2023-02-15T06:23:14;-1.00;99.90
23591;DHT22;11973;52.098;7.582;2023-02-15T06:25:40;-1.10;99.90
23591;DHT22;11973;52.098;7.582;2023-02-15T06:28:05;-1.10;99.90
23591;DHT22;11973;52.098;7.582;2023-02-15T06:30:31;-1.10;99.90
23591;DHT22;11973;52.098;7.582;2023-02-15T06:32:57;-1.10;99.90
23591;DHT22;11973;52.098;7.582;2023-02-15T06:35:23;-1.10;99.90
23591;DHT22;11973;52.098;7.582;2023-02-15T06:37:49;-1.10;99.90
23591;DHT22;11973;52.098;7.582;2023-02-15T06:40:15;-1.10;99.90
23591;DHT22;11973;52.098;7.582;2023-02-15T06:42:42;-1.10;99.90
23591;DHT22;11973;52.098;7.582;2023-02-15T06:45:08;-1.10;99.90
23591;DHT22;11973;52.098;7.582;2023-02-15T06:47:34;-1.10;99.90
23591;DHT22;11973;52.098;7.582;2023-02-15T06:50:00;-1.10;99.90
23591;DHT22;11973;52.098;7.582;2023-02-15T06:52:25;-1.10;99.90
23591;DHT22;11973;52.098;7.582;2023-02-15T06:54:51;-1.10;99.90
23591;DHT22;11973;52.098;7.582;2023-02-15T06:57:17;-1.10;99.90
23591;DHT22;11973;52.098;7.582;2023-02-15T06:59:42;-1.10;99.90
23591;DHT22;11973;52.098;7.582;2023-02-15T07:02:11;-1.10;99.90
23591;DHT22;11973;52.098;7.582;2023-02-15T07:04:36;-1.10;99.90
23591;DHT22;11973;52.098;7.582;2023-02-15T07:07:02;-1.10;99.90
23591;DHT22;11973;52.098;7.582;2023-02-15T07:09:28;-1.10;99.90
23591;DHT22;11973;52.098;7.582;2023-02-15T07:11:54;-1.00;99.90
23591;DHT22;11973;52.098;7.582;2023-02-15T07:14:38;-1.00;99.90
23591;DHT22;11973;52.098;7.582;2023-02-15T07:17:06;-1.00;99.90
23591;DHT22;11973;52.098;7.582;2023-02-15T07:19:31;-1.00;99.90
23591;DHT22;11973;52.098;7.582;2023-02-15T07:21:57;-0.90;99.90
23591;DHT22;11973;52.098;7.582;2023-02-15T07:24:23;-0.90;99.90
23591;DHT22;11973;52.098;7.582;2023-02-15T07:26:48;-0.90;99.90
23591;DHT22;11973;52.098;7.582;2023-02-15T07:29:14;-0.90;99.90
23591;DHT22;11973;52.098;7.582;2023-02-15T07:31:41;-0.90;99.90
23591;DHT22;11973;52.098;7.582;2023-02-15T07:34:08;-0.80;99.90
23591;DHT22;11973;52.098;7.582;2023-02-15T07:36:34;-0.80;99.90
23591;DHT22;11973;52.098;7.582;2023-02-15T07:39:00;-0.80;99.90
23591;DHT22;11973;52.098;7.582;2023-02-15T07:41:25;-0.70;99.90
23591;DHT22;11973;52.098;7.582;2023-02-15T07:43:51;-0.70;99.90
23591;DHT22;11973;52.098;7.582;2023-02-15T07:46:17;-0.70;99.90
23591;DHT22;11973;52.098;7.582;2023-02-15T07:48:44;-0.60;99.90
23591;DHT22;11973;52.098;7.582;2023-02-15T07:51:11;-0.60;99.90
23591;DHT22;11973;52.098;7.582;2023-02-15T07:53:38;-0.50;99.90
23591;DHT22;11973;52.098;7.582;2023-02-15T07:56:07;-0.40;99.90
23591;DHT22;11973;52.098;7.582;2023-02-15T07:58:34;-0.40;99.90
23591;DHT22;11973;52.098;7.582;2023-02-15T08:01:27;-0.30;99.90
23591;DHT22;11973;52.098;7.582;2023-02-15T08:03:54;-0.20;99.90
23591;DHT22;11973;52.098;7.582;2023-02-15T08:06:22;-0.10;99.90
23591;DHT22;11973;52.098;7.582;2023-02-15T08:08:48;-0.10;99.90
23591;DHT22;11973;52.098;7.582;2023-02-15T08:11:21;0.00;99.90
23591;DHT22;11973;52.098;7.582;2023-02-15T08:14:20;0.10;99.90
23591;DHT22;11973;52.098;7.582;2023-02-15T08:16:48;0.20;99.90
23591;DHT22;11973;52.098;7.582;2023-02-15T08:21:54;0.30;99.90
23591;DHT22;11973;52.098;7.582;2023-02-15T08:24:24;0.40;99.90
23591;DHT22;11973;52.098;7.582;2023-02-15T08:26:51;0.50;99.90
23591;DHT22;11973;52.098;7.582;2023-02-15T08:29:19;0.50;99.90
23591;DHT22;11973;52.098;7.582;2023-02-15T08:31:46;0.60;99.90
23591;DHT22;11973;52.098;7.582;2023-02-15T08:34:15;0.60;99.90
23591;DHT22;11973;52.098;7.582;2023-02-15T08:36:41;0.70;99.90
23591;DHT22;11973;52.098;7.582;2023-02-15T08:39:07;0.70;99.90
23591;DHT22;11973;52.098;7.582;2023-02-15T08:41:37;0.80;99.90
23591;DHT22;11973;52.098;7.582;2023-02-15T08:44:05;0.80;99.90
23591;DHT22;11973;52.098;7.582;2023-02-15T08:46:34;0.90;99.90
23591;DHT22;11973;52.098;7.582;2023-02-15T08:49:00;0.90;99.90
23591;DHT22;11973;52.098;7.582;2023-02-15T08:51:29;1.00;99.90
23591;DHT22;11973;52.098;7.582;2023-02-15T08:53:57;1.00;99.90
23591;DHT22;11973;52.098;7.582;2023-02-15T08:56:28;1.00;99.90
23591;DHT22;11973;52.098;7.582;2023-02-15T08:58:54;1.10;99.90
23591;DHT22;11973;52.098;7.582;2023-02-15T09:01:23;1.10;99.90
23591;DHT22;11973;52.098;7.582;2023-02-15T09:03:51;1.20;99.90
23591;DHT22;11973;52.098;7.582;2023-02-15T09:06:21;1.30;99.90
23591;DHT22;11973;52.098;7.582;2023-02-15T09:08:51;1.30;99.90
23591;DHT22;11973;52.098;7.582;2023-02-15T09:11:19;1.40;99.90
23591;DHT22;11973;52.098;7.582;2023-02-15T09:13:52;1.50;99.90
23591;DHT22;11973;52.098;7.582;2023-02-15T09:16:19;1.50;99.90
23591;DHT22;11973;52.098;7.582;2023-02-15T09:18:45;1.60;99.90
23591;DHT22;11973;52.098;7.582;2023-02-15T09:21:13;1.60;99.90
23591;DHT22;11973;52.098;7.582;2023-02-15T09:23:41;1.70;99.90
23591;DHT22;11973;52.098;7.582;2023-02-15T09:26:16;1.70;99.90
23591;DHT22;11973;52.098;7.582;2023-02-15T09:28:42;1.80;99.90
23591;DHT22;11973;52.098;7.582;2023-02-15T09:31:14;1.90;99.90
23591;DHT22;11973;52.098;7.582;2023-02-15T09:33:41;2.00;99.90
23591;DHT22;11973;52.098;7.582;2023-02-15T09:36:25;2.00;99.90
23591;DHT22;11973;52.098;7.582;2023-02-15T09:39:06;2.10;99.90
23591;DHT22;11973;52.098;7.582;2023-02-15T10:00:43;2.70;99.90
23591;DHT22;11973;52.098;7.582;2023-02-15T10:03:15;2.80;99.90
23591;DHT22;11973;52.098;7.582;2023-02-15T10:06:13;2.90;99.90
23591;DHT22;11973;52.098;7.582;2023-02-15T10:08:51;3.00;99.90
23591;DHT22;11973;52.098;7.582;2023-02-15T10:11:36;3.00;99.90
23591;DHT22;11973;52.098;7.582;2023-02-15T10:19:38;3.30;99.90
23591;DHT22;11973;52.098;7.582;2023-02-15T10:25:37;3.40;99.90
23591;DHT22;11973;52.098;7.582;2023-02-15T10:28:18;3.50;99.90
23591;DHT22;11973;52.098;7.582;2023-02-15T10:30:50;3.60;99.90
23591;DHT22;11973;52.098;7.582;2023-02-15T10:50:02;4.10;99.90
23591;DHT22;11973;52.098;7.582;2023-02-15T11:03:17;4.50;99.90
23591;DHT22;11973;52.098;7.582;2023-02-15T11:05:56;4.60;99.90
23591;DHT22;11973;52.098;7.582;2023-02-15T11:08:26;4.70;99.90
23591;DHT22;11973;52.098;7.582;2023-02-15T11:11:04;4.80;99.90
23591;DHT22;11973;52.098;7.582;2023-02-15T11:13:46;4.90;99.90
23591;DHT22;11973;52.098;7.582;2023-02-15T11:16:29;5.00;99.90
23591;DHT22;11973;52.098;7.582;2023-02-15T11:19:06;5.10;99.90
23591;DHT22;11973;52.098;7.582;2023-02-15T11:21:43;5.20;99.90
23591;DHT22;11973;52.098;7.582;2023-02-15T11:24:11;5.30;99.90
23591;DHT22;11973;52.098;7.582;2023-02-15T11:27:25;5.40;99.90
23591;DHT22;11973;52.098;7.582;2023-02-15T11:29:38;5.50;99.90
23591;DHT22;11973;52.098;7.582;2023-02-15T11:32:26;5.60;99.90
23591;DHT22;11973;52.098;7.582;2023-02-15T11:37:22;5.80;99.90
23591;DHT22;11973;52.098;7.582;2023-02-15T11:39:51;5.90;99.90
23591;DHT22;11973;52.098;7.582;2023-02-15T11:42:21;5.90;99.90
23591;DHT22;11973;52.098;7.582;2023-02-15T11:47:15;6.10;99.90
23591;DHT22;11973;52.098;7.582;2023-02-15T11:49:40;6.20;99.90
23591;DHT22;11973;52.098;7.582;2023-02-15T11:52:10;6.20;99.90
23591;DHT22;11973;52.098;7.582;2023-02-15T11:54:41;6.30;99.90
23591;DHT22;11973;52.098;7.582;2023-02-15T11:57:19;6.40;99.90
23591;DHT22;11973;52.098;7.582;2023-02-15T11:59:50;6.50;99.90
23591;DHT22;11973;52.098;7.582;2023-02-15T12:02:22;6.60;99.90
23591;DHT22;11973;52.098;7.582;2023-02-15T12:04:58;6.80;99.90
23591;DHT22;11973;52.098;7.582;2023-02-15T12:07:35;6.80;99.90
23591;DHT22;11973;52.098;7.582;2023-02-15T12:10:23;7.00;99.90
23591;DHT22;11973;52.098;7.582;2023-02-15T12:15:34;7.10;99.90
23591;DHT22;11973;52.098;7.582;2023-02-15T12:18:01;7.20;99.90
23591;DHT22;11973;52.098;7.582;2023-02-15T12:20:35;7.30;99.90
23591;DHT22;11973;52.098;7.582;2023-02-15T12:23:12;7.40;99.90
23591;DHT22;11973;52.098;7.582;2023-02-15T12:25:43;7.40;99.90
23591;DHT22;11973;52.098;7.582;2023-02-15T12:30:53;7.60;99.90
23591;DHT22;11973;52.098;7.582;2023-02-15T12:33:34;7.70;99.90
23591;DHT22;11973;52.098;7.582;2023-02-15T12:36:19;7.80;99.90
23591;DHT22;11973;52.098;7.582;2023-02-15T12:41:33;7.90;99.90
23591;DHT22;11973;52.098;7.582;2023-02-15T12:44:20;8.00;99.90
23591;DHT22;11973;52.098;7.582;2023-02-15T12:49:24;8.20;99.90
23591;DHT22;11973;52.098;7.582;2023-02-15T12:51:52;8.30;99.90
23591;DHT22;11973;52.098;7.582;2023-02-15T12:56:50;8.50;99.90
23591;DHT22;11973;52.098;7.582;2023-02-15T12:59:17;8.50;99.90
23591;DHT22;11973;52.098;7.582;2023-02-15T13:01:46;8.60;99.90
23591;DHT22;11973;52.098;7.582;2023-02-15T13:04:25;8.70;99.90
23591;DHT22;11973;52.098;7.582;2023-02-15T13:06:53;8.70;99.90
23591;DHT22;11973;52.098;7.582;2023-02-15T13:11:49;8.90;99.90
23591;DHT22;11973;52.098;7.582;2023-02-15T13:14:20;8.90;99.90
23591;DHT22;11973;52.098;7.582;2023-02-15T13:16:50;9.00;99.90
23591;DHT22;11973;52.098;7.582;2023-02-15T13:19:18;9.00;99.90
23591;DHT22;11973;52.098;7.582;2023-02-15T13:21:50;9.10;99.90
23591;DHT22;11973;52.098;7.582;2023-02-15T13:24:27;9.10;99.90
23591;DHT22;11973;52.098;7.582;2023-02-15T13:26:58;9.20;99.90
23591;DHT22;11973;52.098;7.582;2023-02-15T13:29:33;9.20;99.90
23591;DHT22;11973;52.098;7.582;2023-02-15T13:32:12;9.30;99.90
23591;DHT22;11973;52.098;7.582;2023-02-15T13:34:46;9.40;99.90
23591;DHT22;11973;52.098;7.582;2023-02-15T13:40:21;9.50;99.90
23591;DHT22;11973;52.098;7.582;2023-02-15T13:48:41;9.80;99.90
23591;DHT22;11973;52.098;7.582;2023-02-15T13:51:34;9.90;99.90
23591;DHT22;11973;52.098;7.582;2023-02-15T14:14:11;10.60;99.90
23591;DHT22;11973;52.098;7.582;2023-02-15T14:16:58;10.70;99.90
23591;DHT22;11973;52.098;7.582;2023-02-15T14:20:29;10.80;99.90
23591;DHT22;11973;52.098;7.582;2023-02-15T14:22:36;10.80;99.90
23591;DHT22;11973;52.098;7.582;2023-02-15T14:28:49;10.90;99.90
23591;DHT22;11973;52.098;7.582;2023-02-15T14:31:18;10.90;99.90
23591;DHT22;11973;52.098;7.582;2023-02-15T14:33:55;11.00;99.90
23591;DHT22;11973;52.098;7.582;2023-02-15T14:36:23;11.00;99.90
23591;DHT22;11973;52.098;7.582;2023-02-15T14:41:41;11.00;99.90
23591;DHT22;11973;52.098;7.582;2023-02-15T14:44:18;11.00;99.90
23591;DHT22;11973;52.098;7.582;2023-02-15T14:47:01;11.00;99.90
23591;DHT22;11973;52.098;7.582;2023-02-15T14:49:36;11.00;99.90
23591;DHT22;11973;52.098;7.582;2023-02-15T14:52:04;11.10;99.90
23591;DHT22;11973;52.098;7.582;2023-02-15T15:05:46;11.80;99.90
23591;DHT22;11973;52.098;7.582;2023-02-15T15:08:25;12.00;99.90
23591;DHT22;11973;52.098;7.582;2023-02-15T15:10:52;12.10;99.90
23591;DHT22;11973;52.098;7.582;2023-02-15T15:19:00;12.10;99.90
23591;DHT22;11973;52.098;7.582;2023-02-15T15:22:03;11.90;99.90
23591;DHT22;11973;52.098;7.582;2023-02-15T15:35:37;11.30;99.90
23591;DHT22;11973;52.098;7.582;2023-02-15T15:40:52;11.00;99.90
23591;DHT22;11973;52.098;7.582;2023-02-15T15:49:34;10.60;99.90
23591;DHT22;11973;52.098;7.582;2023-02-15T15:51:53;10.50;99.90
23591;DHT22;11973;52.098;7.582;2023-02-15T15:54:24;10.40;99.90
23591;DHT22;11973;52.098;7.582;2023-02-15T15:56:55;10.20;99.90
23591;DHT22;11973;52.098;7.582;2023-02-15T15:59:24;10.10;99.90
23591;DHT22;11973;52.098;7.582;2023-02-15T16:01:50;10.00;99.90
23591;DHT22;11973;52.098;7.582;2023-02-15T16:04:27;9.90;99.90
23591;DHT22;11973;52.098;7.582;2023-02-15T16:06:56;9.80;99.90
23591;DHT22;11973;52.098;7.582;2023-02-15T16:09:23;9.70;99.90
23591;DHT22;11973;52.098;7.582;2023-02-15T16:11:55;9.60;99.90
23591;DHT22;11973;52.098;7.582;2023-02-15T16:14:32;9.50;99.90
23591;DHT22;11973;52.098;7.582;2023-02-15T16:17:03;9.40;99.90
23591;DHT22;11973;52.098;7.582;2023-02-15T16:19:33;9.30;99.90
23591;DHT22;11973;52.098;7.582;2023-02-15T16:22:01;9.20;99.90
23591;DHT22;11973;52.098;7.582;2023-02-15T16:27:36;9.00;99.90
23591;DHT22;11973;52.098;7.582;2023-02-15T16:30:31;8.90;99.90
23591;DHT22;11973;52.098;7.582;2023-02-15T16:35:34;8.60;99.90
23591;DHT22;11973;52.098;7.582;2023-02-15T16:38:01;8.60;99.90
23591;DHT22;11973;52.098;7.582;2023-02-15T16:40:45;8.40;99.90
23591;DHT22;11973;52.098;7.582;2023-02-15T16:43:23;8.30;99.90
23591;DHT22;11973;52.098;7.582;2023-02-15T16:45:50;8.20;99.90
23591;DHT22;11973;52.098;7.582;2023-02-15T16:48:23;8.10;99.90
23591;DHT22;11973;52.098;7.582;2023-02-15T16:50:56;8.10;99.90
23591;DHT22;11973;52.098;7.582;2023-02-15T16:53:26;7.90;99.90
23591;DHT22;11973;52.098;7.582;2023-02-15T16:55:59;7.80;99.90
23591;DHT22;11973;52.098;7.582;2023-02-15T16:58:39;7.80;99.90
23591;DHT22;11973;52.098;7.582;2023-02-15T17:01:08;7.70;99.90
23591;DHT22;11973;52.098;7.582;2023-02-15T17:03:35;7.70;99.90
23591;DHT22;11973;52.098;7.582;2023-02-15T17:06:02;7.50;99.90
23591;DHT22;11973;52.098;7.582;2023-02-15T17:08:31;7.40;99.90
23591;DHT22;11973;52.098;7.582;2023-02-15T17:16:31;7.20;99.90
23591;DHT22;11973;52.098;7.582;2023-02-15T17:19:08;7.20;99.90
23591;DHT22;11973;52.098;7.582;2023-02-15T17:21:41;7.10;99.90
23591;DHT22;11973;52.098;7.582;2023-02-15T17:24:34;7.00;99.90
23591;DHT22;11973;52.098;7.582;2023-02-15T17:27:20;6.90;99.90
23591;DHT22;11973;52.098;7.582;2023-02-15T17:29:51;6.80;99.90
23591;DHT22;11973;52.098;7.582;2023-02-15T17:32:22;6.80;99.90
23591;DHT22;11973;52.098;7.582;2023-02-15T17:35:16;6.70;99.90
23591;DHT22;11973;52.098;7.582;2023-02-15T17:37:47;6.60;99.90
23591;DHT22;11973;52.098;7.582;2023-02-15T17:40:40;6.60;99.90
23591;DHT22;11973;52.098;7.582;2023-02-15T17:43:05;6.50;99.90
23591;DHT22;11973;52.098;7.582;2023-02-15T17:45:37;6.50;99.90
23591;DHT22;11973;52.098;7.582;2023-02-15T17:48:06;6.40;99.90
23591;DHT22;11973;52.098;7.582;2023-02-15T17:50:32;6.40;99.90
23591;DHT22;11973;52.098;7.582;2023-02-15T17:52:58;6.30;99.90
23591;DHT22;11973;52.098;7.582;2023-02-15T17:55:27;6.30;99.90
23591;DHT22;11973;52.098;7.582;2023-02-15T17:58:16;6.20;99.90
23591;DHT22;11973;52.098;7.582;2023-02-15T18:00:49;6.20;99.90
23591;DHT22;11973;52.098;7.582;2023-02-15T18:03:49;6.20;99.90
23591;DHT22;11973;52.098;7.582;2023-02-15T18:06:37;6.10;99.90
23591;DHT22;11973;52.098;7.582;2023-02-15T18:09:23;6.10;99.90
23591;DHT22;11973;52.098;7.582;2023-02-15T18:14:44;6.00;99.90
23591;DHT22;11973;52.098;7.582;2023-02-15T18:17:14;6.00;99.90
23591;DHT22;11973;52.098;7.582;2023-02-15T18:19:41;6.00;99.90
23591;DHT22;11973;52.098;7.582;2023-02-15T18:22:14;5.90;99.90
23591;DHT22;11973;52.098;7.582;2023-02-15T18:24:40;5.90;99.90
23591;DHT22;11973;52.098;7.582;2023-02-15T18:27:06;5.90;99.90
23591;DHT22;11973;52.098;7.582;2023-02-15T18:29:32;5.90;99.90
23591;DHT22;11973;52.098;7.582;2023-02-15T18:31:59;5.80;99.90
23591;DHT22;11973;52.098;7.582;2023-02-15T18:34:35;5.80;99.90
23591;DHT22;11973;52.098;7.582;2023-02-15T18:37:04;5.80;99.90
23591;DHT22;11973;52.098;7.582;2023-02-15T18:39:47;5.80;99.90
23591;DHT22;11973;52.098;7.582;2023-02-15T18:42:20;5.70;99.90
23591;DHT22;11973;52.098;7.582;2023-02-15T18:44:46;5.70;99.90
23591;DHT22;11973;52.098;7.582;2023-02-15T18:47:12;5.70;99.90
23591;DHT22;11973;52.098;7.582;2023-02-15T18:49:38;5.70;99.90
23591;DHT22;11973;52.098;7.582;2023-02-15T18:52:04;5.70;99.90
23591;DHT22;11973;52.098;7.582;2023-02-15T18:54:30;5.60;99.90
23591;DHT22;11973;52.098;7.582;2023-02-15T18:56:57;5.60;99.90
23591;DHT22;11973;52.098;7.582;2023-02-15T18:59:26;5.60;99.90
23591;DHT22;11973;52.098;7.582;2023-02-15T19:01:52;5.50;99.90
23591;DHT22;11973;52.098;7.582;2023-02-15T19:04:19;5.50;99.90
23591;DHT22;11973;52.098;7.582;2023-02-15T19:06:48;5.50;99.90
23591;DHT22;11973;52.098;7.582;2023-02-15T19:09:20;5.40;99.90
23591;DHT22;11973;52.098;7.582;2023-02-15T19:11:52;5.40;99.90
23591;DHT22;11973;52.098;7.582;2023-02-15T19:14:29;5.30;99.90
23591;DHT22;11973;52.098;7.582;2023-02-15T19:16:56;5.30;99.90
23591;DHT22;11973;52.098;7.582;2023-02-15T19:19:22;5.30;99.90
23591;DHT22;11973;52.098;7.582;2023-02-15T19:21:48;5.20;99.90
23591;DHT22;11973;52.098;7.582;2023-02-15T19:24:23;5.20;99.90
23591;DHT22;11973;52.098;7.582;2023-02-15T19:26:50;5.20;99.90
23591;DHT22;11973;52.098;7.582;2023-02-15T19:29:24;5.10;99.90
23591;DHT22;11973;52.098;7.582;2023-02-15T19:31:50;5.10;99.90
23591;DHT22;11973;52.098;7.582;2023-02-15T19:34:17;5.10;99.90
23591;DHT22;11973;52.098;7.582;2023-02-15T19:36:44;5.10;99.90
23591;DHT22;11973;52.098;7.582;2023-02-15T19:39:23;5.00;99.90
23591;DHT22;11973;52.098;7.582;2023-02-15T19:41:50;5.00;99.90
23591;DHT22;11973;52.098;7.582;2023-02-15T19:44:16;4.90;99.90
23591;DHT22;11973;52.098;7.582;2023-02-15T19:46:43;4.90;99.90
23591;DHT22;11973;52.098;7.582;2023-02-15T19:49:09;4.90;99.90
23591;DHT22;11973;52.098;7.582;2023-02-15T19:51:35;4.80;99.90
23591;DHT22;11973;52.098;7.582;2023-02-15T19:54:01;4.80;99.90
23591;DHT22;11973;52.098;7.582;2023-02-15T19:56:27;4.80;99.90
23591;DHT22;11973;52.098;7.582;2023-02-15T19:58:53;4.70;99.90
23591;DHT22;11973;52.098;7.582;2023-02-15T20:01:22;4.70;99.90
23591;DHT22;11973;52.098;7.582;2023-02-15T20:03:50;4.70;99.90
23591;DHT22;11973;52.098;7.582;2023-02-15T20:06:17;4.70;99.90
23591;DHT22;11973;52.098;7.582;2023-02-15T20:08:43;4.60;99.90
23591;DHT22;11973;52.098;7.582;2023-02-15T20:11:11;4.60;99.90
23591;DHT22;11973;52.098;7.582;2023-02-15T20:13:38;4.60;99.90
23591;DHT22;11973;52.098;7.582;2023-02-15T20:16:04;4.70;99.90
23591;DHT22;11973;52.098;7.582;2023-02-15T20:18:33;4.60;99.90
23591;DHT22;11973;52.098;7.582;2023-02-15T20:20:59;4.60;99.90
23591;DHT22;11973;52.098;7.582;2023-02-15T20:25:52;4.60;99.90
23591;DHT22;11973;52.098;7.582;2023-02-15T20:28:21;4.60;99.90
23591;DHT22;11973;52.098;7.582;2023-02-15T20:30:48;4.70;99.90
23591;DHT22;11973;52.098;7.582;2023-02-15T20:33:14;4.70;99.90
23591;DHT22;11973;52.098;7.582;2023-02-15T20:35:41;4.80;99.90
23591;DHT22;11973;52.098;7.582;2023-02-15T20:38:24;4.80;99.90
23591;DHT22;11973;52.098;7.582;2023-02-15T20:40:51;4.90;99.90
23591;DHT22;11973;52.098;7.582;2023-02-15T20:43:36;4.90;99.90
23591;DHT22;11973;52.098;7.582;2023-02-15T20:46:02;5.00;99.90
23591;DHT22;11973;52.098;7.582;2023-02-15T20:48:28;5.00;99.90
23591;DHT22;11973;52.098;7.582;2023-02-15T20:50:54;5.10;99.90
23591;DHT22;11973;52.098;7.582;2023-02-15T20:53:20;5.10;99.90
23591;DHT22;11973;52.098;7.582;2023-02-15T20:55:46;5.20;99.90
23591;DHT22;11973;52.098;7.582;2023-02-15T20:58:21;5.20;99.90
23591;DHT22;11973;52.098;7.582;2023-02-15T21:00:48;5.20;99.90
23591;DHT22;11973;52.098;7.582;2023-02-15T21:03:14;5.30;99.90
23591;DHT22;11973;52.098;7.582;2023-02-15T21:05:40;5.30;99.90
23591;DHT22;11973;52.098;7.582;2023-02-15T21:08:17;5.40;99.90
23591;DHT22;11973;52.098;7.582;2023-02-15T21:10:45;5.50;99.90
23591;DHT22;11973;52.098;7.582;2023-02-15T21:13:32;5.50;99.90
23591;DHT22;11973;52.098;7.582;2023-02-15T21:15:59;5.60;99.90
23591;DHT22;11973;52.098;7.582;2023-02-15T21:18:30;5.60;99.90
23591;DHT22;11973;52.098;7.582;2023-02-15T21:20:58;5.60;99.90
23591;DHT22;11973;52.098;7.582;2023-02-15T21:23:43;5.60;99.90
23591;DHT22;11973;52.098;7.582;2023-02-15T21:26:20;5.60;99.90
23591;DHT22;11973;52.098;7.582;2023-02-15T21:28:46;5.50;99.90
23591;DHT22;11973;52.098;7.582;2023-02-15T21:31:31;5.50;99.90
23591;DHT22;11973;52.098;7.582;2023-02-15T21:33:56;5.40;99.90
23591;DHT22;11973;52.098;7.582;2023-02-15T21:36:23;5.40;99.90
23591;DHT22;11973;52.098;7.582;2023-02-15T21:38:49;5.40;99.90
23591;DHT22;11973;52.098;7.582;2023-02-15T21:41:17;5.30;99.90
23591;DHT22;11973;52.098;7.582;2023-02-15T21:44:09;5.30;99.90
23591;DHT22;11973;52.098;7.582;2023-02-15T21:46:57;5.20;99.90
23591;DHT22;11973;52.098;7.582;2023-02-15T21:49:42;5.20;99.90
23591;DHT22;11973;52.098;7.582;2023-02-15T21:52:11;5.20;99.90
23591;DHT22;11973;52.098;7.582;2023-02-15T21:54:39;5.20;99.90
23591;DHT22;11973;52.098;7.582;2023-02-15T21:57:04;5.10;99.90
23591;DHT22;11973;52.098;7.582;2023-02-15T21:59:30;5.10;99.90
23591;DHT22;11973;52.098;7.582;2023-02-15T22:01:57;5.10;99.90
23591;DHT22;11973;52.098;7.582;2023-02-15T22:04:28;5.10;99.90
23591;DHT22;11973;52.098;7.582;2023-02-15T22:06:54;5.10;99.90
23591;DHT22;11973;52.098;7.582;2023-02-15T22:09:23;5.00;99.90
23591;DHT22;11973;52.098;7.582;2023-02-15T22:11:50;5.00;99.90
23591;DHT22;11973;52.098;7.582;2023-02-15T22:14:37;5.00;99.90
23591;DHT22;11973;52.098;7.582;2023-02-15T22:17:24;5.00;99.90
23591;DHT22;11973;52.098;7.582;2023-02-15T22:19:50;5.00;99.90
23591;DHT22;11973;52.098;7.582;2023-02-15T22:22:16;5.00;99.90
23591;DHT22;11973;52.098;7.582;2023-02-15T22:24:43;4.90;99.90
23591;DHT22;11973;52.098;7.582;2023-02-15T22:27:21;4.90;99.90
23591;DHT22;11973;52.098;7.582;2023-02-15T22:29:48;4.90;99.90
23591;DHT22;11973;52.098;7.582;2023-02-15T22:32:23;4.90;99.90
23591;DHT22;11973;52.098;7.582;2023-02-15T22:34:51;4.90;99.90
23591;DHT22;11973;52.098;7.582;2023-02-15T22:37:16;4.80;99.90
23591;DHT22;11973;52.098;7.582;2023-02-15T22:39:42;4.80;99.90
23591;DHT22;11973;52.098;7.582;2023-02-15T22:42:21;4.80;99.90
23591;DHT22;11973;52.098;7.582;2023-02-15T22:44:50;4.80;99.90
23591;DHT22;11973;52.098;7.582;2023-02-15T22:47:20;4.80;99.90
23591;DHT22;11973;52.098;7.582;2023-02-15T22:49:46;4.80;99.90
23591;DHT22;11973;52.098;7.582;2023-02-15T22:52:13;4.80;99.90
23591;DHT22;11973;52.098;7.582;2023-02-15T22:54:39;4.80;99.90
23591;DHT22;11973;52.098;7.582;2023-02-15T22:57:05;4.80;99.90
23591;DHT22;11973;52.098;7.582;2023-02-15T22:59:33;4.80;99.90
23591;DHT22;11973;52.098;7.582;2023-02-15T23:01:59;4.80;99.90
23591;DHT22;11973;52.098;7.582;2023-02-15T23:04:27;4.80;99.90
23591;DHT22;11973;52.098;7.582;2023-02-15T23:06:54;4.80;99.90
23591;DHT22;11973;52.098;7.582;2023-02-15T23:09:21;4.80;99.90
23591;DHT22;11973;52.098;7.582;2023-02-15T23:11:48;4.80;99.90
23591;DHT22;11973;52.098;7.582;2023-02-15T23:16:49;4.80;99.90
23591;DHT22;11973;52.098;7.582;2023-02-15T23:19:14;4.80;99.90
23591;DHT22;11973;52.098;7.582;2023-02-15T23:21:40;4.80;99.90
23591;DHT22;11973;52.098;7.582;2023-02-15T23:24:49;4.90;99.90
23591;DHT22;11973;52.098;7.582;2023-02-15T23:27:16;4.90;99.90
23591;DHT22;11973;52.098;7.582;2023-02-15T23:30:05;4.90;99.90
23591;DHT22;11973;52.098;7.582;2023-02-15T23:32:35;4.90;99.90
23591;DHT22;11973;52.098;7.582;2023-02-15T23:35:01;4.90;99.90
23591;DHT22;11973;52.098;7.582;2023-02-15T23:37:26;4.90;99.90
23591;DHT22;11973;52.098;7.582;2023-02-15T23:39:52;4.80;99.90
23591;DHT22;11973;52.098;7.582;2023-02-15T23:42:36;4.90;99.90